Flight Information

DEPARTURE
BULLHEAD CITY, AZ
Elevation:
707
Runways:
16/34 - 8501x150 - ASPH-G
ATIS:
119.825
Ground:
118.25
Tower:
BULLHEAD TOWER 123.9
DESTINATION
,
Elevation:
TPA:
1000 (est.)


6591.7 NM75° True-14° Var61° HDG

Flight Plan:
(click to file on line)

1. Type
2. Aircraft Identification
3. Aircraft Type / Special Equipment
4. True Airspeed
kts
5. Departure Airport
(ICAO code)
6. Arriving Airport
(ICAO code)
7. Cruising Altitude
ft
8. Alternate Airport
(ICAO code)
9. Route of Flight
10. Remarks


00:00:00 Departure ATIS: Destination ATIS:

Clearance Limit:
Route:
Altitude: Expect in minutes
Frequency:
Transponder: (7500 Hijack / 7600 Lost Comms / 7700 Emergency)


KEED 281156Z AUTO 35016G27KT 10SM CLR 27/M03 A2992 RMK AO2 PK WND 35027/1148 SLP098 T02721033 10322 20272 53014
Time: 2020-09-28T11:56:00Z
1601295779
Winds: 350 @ 16 kts
Gusting:27 kts
Visibility: 10.0 sm
Clouds (AGL): CLR
Temperature: 27.2 C
Dew Point: -3.3 C
Pressure: 29.920275 in Hgbr


Notes:

Data extracted from FAA Digital Chart Supplement. Effective: 0901Z Thursday, Sep 10, 2020 to 0901Z Thursday, Nov 5, 2020
Current ATIS data is provided courtisy of PilotEdge.